sensor_id;sensor_type;location;lat;lon;timestamp;temperature;humidity
13482;DHT22;6813;60.352;15.746;2024-03-06T00:00:48;2.00;99.90
13482;DHT22;6813;60.352;15.746;2024-03-06T00:03:13;2.00;99.90
13482;DHT22;6813;60.352;15.746;2024-03-06T00:05:39;2.10;99.90
13482;DHT22;6813;60.352;15.746;2024-03-06T00:08:05;2.10;99.90
13482;DHT22;6813;60.352;15.746;2024-03-06T00:10:31;2.00;99.90
13482;DHT22;6813;60.352;15.746;2024-03-06T00:12:56;2.10;99.90
13482;DHT22;6813;60.352;15.746;2024-03-06T00:15:22;2.00;99.90
13482;DHT22;6813;60.352;15.746;2024-03-06T00:17:48;2.00;99.90
13482;DHT22;6813;60.352;15.746;2024-03-06T00:20:13;2.10;99.90
13482;DHT22;6813;60.352;15.746;2024-03-06T00:22:39;2.10;99.90
13482;DHT22;6813;60.352;15.746;2024-03-06T00:25:06;2.00;99.90
13482;DHT22;6813;60.352;15.746;2024-03-06T00:27:31;1.90;99.90
13482;DHT22;6813;60.352;15.746;2024-03-06T00:29:57;1.80;99.90
13482;DHT22;6813;60.352;15.746;2024-03-06T00:32:23;1.90;99.90
13482;DHT22;6813;60.352;15.746;2024-03-06T00:34:49;1.80;99.90
13482;DHT22;6813;60.352;15.746;2024-03-06T00:37:15;1.90;99.90
13482;DHT22;6813;60.352;15.746;2024-03-06T00:39:40;1.90;99.90
13482;DHT22;6813;60.352;15.746;2024-03-06T00:42:06;1.80;99.90
13482;DHT22;6813;60.352;15.746;2024-03-06T00:44:34;1.80;99.90
13482;DHT22;6813;60.352;15.746;2024-03-06T00:47:00;1.70;99.90
13482;DHT22;6813;60.352;15.746;2024-03-06T00:49:25;1.60;99.90
13482;DHT22;6813;60.352;15.746;2024-03-06T00:51:51;1.70;99.90
13482;DHT22;6813;60.352;15.746;2024-03-06T00:54:17;1.80;99.90
13482;DHT22;6813;60.352;15.746;2024-03-06T00:56:43;1.80;99.90
13482;DHT22;6813;60.352;15.746;2024-03-06T00:59:08;1.80;99.90
13482;DHT22;6813;60.352;15.746;2024-03-06T01:01:34;1.80;99.90
13482;DHT22;6813;60.352;15.746;2024-03-06T01:04:00;1.90;99.90
13482;DHT22;6813;60.352;15.746;2024-03-06T01:06:26;1.90;99.90
13482;DHT22;6813;60.352;15.746;2024-03-06T01:08:53;1.80;99.90
13482;DHT22;6813;60.352;15.746;2024-03-06T01:11:19;1.80;99.90
13482;DHT22;6813;60.352;15.746;2024-03-06T01:13:45;1.90;99.90
13482;DHT22;6813;60.352;15.746;2024-03-06T01:16:11;1.80;99.90
13482;DHT22;6813;60.352;15.746;2024-03-06T01:18:36;1.80;99.90
13482;DHT22;6813;60.352;15.746;2024-03-06T01:21:02;1.70;99.90
13482;DHT22;6813;60.352;15.746;2024-03-06T01:23:29;1.80;99.90
13482;DHT22;6813;60.352;15.746;2024-03-06T01:25:54;1.80;99.90
13482;DHT22;6813;60.352;15.746;2024-03-06T01:28:20;1.90;99.90
13482;DHT22;6813;60.352;15.746;2024-03-06T01:30:46;1.90;99.90
13482;DHT22;6813;60.352;15.746;2024-03-06T01:33:11;1.90;99.90
13482;DHT22;6813;60.352;15.746;2024-03-06T01:35:37;1.90;99.90
13482;DHT22;6813;60.352;15.746;2024-03-06T01:38:03;1.90;99.90
13482;DHT22;6813;60.352;15.746;2024-03-06T01:40:28;1.90;99.90
13482;DHT22;6813;60.352;15.746;2024-03-06T01:42:55;1.90;99.90
13482;DHT22;6813;60.352;15.746;2024-03-06T01:45:20;1.90;99.90
13482;DHT22;6813;60.352;15.746;2024-03-06T01:47:46;1.90;99.90
13482;DHT22;6813;60.352;15.746;2024-03-06T01:50:12;1.80;99.90
13482;DHT22;6813;60.352;15.746;2024-03-06T01:52:39;1.70;99.90
13482;DHT22;6813;60.352;15.746;2024-03-06T01:55:07;1.70;99.90
13482;DHT22;6813;60.352;15.746;2024-03-06T01:57:34;1.60;99.90
13482;DHT22;6813;60.352;15.746;2024-03-06T02:00:02;1.60;99.90
13482;DHT22;6813;60.352;15.746;2024-03-06T02:02:28;1.50;99.90
13482;DHT22;6813;60.352;15.746;2024-03-06T02:04:54;1.30;99.90
13482;DHT22;6813;60.352;15.746;2024-03-06T02:07:20;1.40;99.90
13482;DHT22;6813;60.352;15.746;2024-03-06T02:09:46;1.40;99.90
13482;DHT22;6813;60.352;15.746;2024-03-06T02:12:12;1.20;99.90
13482;DHT22;6813;60.352;15.746;2024-03-06T02:14:38;1.10;99.90
13482;DHT22;6813;60.352;15.746;2024-03-06T02:17:04;1.00;99.90
13482;DHT22;6813;60.352;15.746;2024-03-06T02:19:40;1.10;99.90
13482;DHT22;6813;60.352;15.746;2024-03-06T02:22:07;1.20;99.90
13482;DHT22;6813;60.352;15.746;2024-03-06T02:24:34;1.40;99.90
13482;DHT22;6813;60.352;15.746;2024-03-06T02:27:00;1.40;99.90
13482;DHT22;6813;60.352;15.746;2024-03-06T02:29:25;1.40;99.90
13482;DHT22;6813;60.352;15.746;2024-03-06T02:31:51;1.20;99.90
13482;DHT22;6813;60.352;15.746;2024-03-06T02:34:17;1.20;99.90
13482;DHT22;6813;60.352;15.746;2024-03-06T02:36:42;1.30;99.90
13482;DHT22;6813;60.352;15.746;2024-03-06T02:39:08;1.40;99.90
13482;DHT22;6813;60.352;15.746;2024-03-06T02:41:37;1.50;99.90
13482;DHT22;6813;60.352;15.746;2024-03-06T02:44:03;1.60;99.90
13482;DHT22;6813;60.352;15.746;2024-03-06T02:46:29;1.70;99.90
13482;DHT22;6813;60.352;15.746;2024-03-06T02:48:54;1.70;99.90
13482;DHT22;6813;60.352;15.746;2024-03-06T02:51:21;1.70;99.90
13482;DHT22;6813;60.352;15.746;2024-03-06T02:53:46;1.70;99.90
13482;DHT22;6813;60.352;15.746;2024-03-06T02:56:20;1.70;99.90
13482;DHT22;6813;60.352;15.746;2024-03-06T02:58:46;1.70;99.90
13482;DHT22;6813;60.352;15.746;2024-03-06T03:01:13;1.60;99.90
13482;DHT22;6813;60.352;15.746;2024-03-06T03:03:42;1.60;99.90
13482;DHT22;6813;60.352;15.746;2024-03-06T03:06:09;1.70;99.90
13482;DHT22;6813;60.352;15.746;2024-03-06T03:08:38;1.70;99.90
13482;DHT22;6813;60.352;15.746;2024-03-06T03:11:04;1.60;99.90
13482;DHT22;6813;60.352;15.746;2024-03-06T03:13:30;1.50;99.90
13482;DHT22;6813;60.352;15.746;2024-03-06T03:15:56;1.50;99.90
13482;DHT22;6813;60.352;15.746;2024-03-06T03:18:22;1.50;99.90
13482;DHT22;6813;60.352;15.746;2024-03-06T03:20:48;1.40;99.90
13482;DHT22;6813;60.352;15.746;2024-03-06T03:23:13;1.50;99.90
13482;DHT22;6813;60.352;15.746;2024-03-06T03:25:40;1.50;99.90
13482;DHT22;6813;60.352;15.746;2024-03-06T03:28:09;1.50;99.90
13482;DHT22;6813;60.352;15.746;2024-03-06T03:30:35;1.40;99.90
13482;DHT22;6813;60.352;15.746;2024-03-06T03:33:01;1.50;99.90
13482;DHT22;6813;60.352;15.746;2024-03-06T03:35:26;1.50;99.90
13482;DHT22;6813;60.352;15.746;2024-03-06T03:37:52;1.50;99.90
13482;DHT22;6813;60.352;15.746;2024-03-06T03:40:18;1.50;99.90
13482;DHT22;6813;60.352;15.746;2024-03-06T03:42:44;1.50;99.90
13482;DHT22;6813;60.352;15.746;2024-03-06T03:45:10;1.60;99.90
13482;DHT22;6813;60.352;15.746;2024-03-06T03:47:35;1.50;99.90
13482;DHT22;6813;60.352;15.746;2024-03-06T03:50:01;1.50;99.90
13482;DHT22;6813;60.352;15.746;2024-03-06T03:52:26;1.50;99.90
13482;DHT22;6813;60.352;15.746;2024-03-06T03:54:52;1.50;99.90
13482;DHT22;6813;60.352;15.746;2024-03-06T03:57:18;1.50;99.90
13482;DHT22;6813;60.352;15.746;2024-03-06T03:59:44;1.50;99.90
13482;DHT22;6813;60.352;15.746;2024-03-06T04:02:09;1.50;99.90
13482;DHT22;6813;60.352;15.746;2024-03-06T04:04:35;1.50;99.90
13482;DHT22;6813;60.352;15.746;2024-03-06T04:07:00;1.50;99.90
13482;DHT22;6813;60.352;15.746;2024-03-06T04:09:31;1.50;99.90
13482;DHT22;6813;60.352;15.746;2024-03-06T04:11:57;1.50;99.90
13482;DHT22;6813;60.352;15.746;2024-03-06T04:14:23;1.50;99.90
13482;DHT22;6813;60.352;15.746;2024-03-06T04:16:50;1.60;99.90
13482;DHT22;6813;60.352;15.746;2024-03-06T04:19:15;1.50;99.90
13482;DHT22;6813;60.352;15.746;2024-03-06T04:21:42;1.60;99.90
13482;DHT22;6813;60.352;15.746;2024-03-06T04:24:08;1.60;99.90
13482;DHT22;6813;60.352;15.746;2024-03-06T04:26:33;1.60;99.90
13482;DHT22;6813;60.352;15.746;2024-03-06T04:28:59;1.60;99.90
13482;DHT22;6813;60.352;15.746;2024-03-06T04:31:25;1.60;99.90
13482;DHT22;6813;60.352;15.746;2024-03-06T04:33:51;1.60;99.90
13482;DHT22;6813;60.352;15.746;2024-03-06T04:36:16;1.60;99.90
13482;DHT22;6813;60.352;15.746;2024-03-06T04:38:42;1.60;99.90
13482;DHT22;6813;60.352;15.746;2024-03-06T04:41:08;1.60;99.90
13482;DHT22;6813;60.352;15.746;2024-03-06T04:43:34;1.50;99.90
13482;DHT22;6813;60.352;15.746;2024-03-06T04:46:00;1.50;99.90
13482;DHT22;6813;60.352;15.746;2024-03-06T04:48:26;1.60;99.90
13482;DHT22;6813;60.352;15.746;2024-03-06T04:50:51;1.60;99.90
13482;DHT22;6813;60.352;15.746;2024-03-06T04:53:18;1.70;99.90
13482;DHT22;6813;60.352;15.746;2024-03-06T04:55:45;1.70;99.90
13482;DHT22;6813;60.352;15.746;2024-03-06T04:58:12;1.80;99.90
13482;DHT22;6813;60.352;15.746;2024-03-06T05:00:38;1.80;99.90
13482;DHT22;6813;60.352;15.746;2024-03-06T05:03:03;1.90;99.90
13482;DHT22;6813;60.352;15.746;2024-03-06T05:05:29;1.80;99.90
13482;DHT22;6813;60.352;15.746;2024-03-06T05:07:55;1.80;99.90
13482;DHT22;6813;60.352;15.746;2024-03-06T05:10:21;1.70;99.90
13482;DHT22;6813;60.352;15.746;2024-03-06T05:12:47;1.70;99.90
13482;DHT22;6813;60.352;15.746;2024-03-06T05:15:13;1.70;99.90
13482;DHT22;6813;60.352;15.746;2024-03-06T05:17:39;1.60;99.90
13482;DHT22;6813;60.352;15.746;2024-03-06T05:20:06;1.60;99.90
13482;DHT22;6813;60.352;15.746;2024-03-06T05:22:31;1.70;99.90
13482;DHT22;6813;60.352;15.746;2024-03-06T05:24:57;1.70;99.90
13482;DHT22;6813;60.352;15.746;2024-03-06T05:27:24;1.70;99.90
13482;DHT22;6813;60.352;15.746;2024-03-06T05:29:50;1.70;99.90
13482;DHT22;6813;60.352;15.746;2024-03-06T05:32:16;1.70;99.90
13482;DHT22;6813;60.352;15.746;2024-03-06T05:34:42;1.60;99.90
13482;DHT22;6813;60.352;15.746;2024-03-06T05:37:08;1.60;99.90
13482;DHT22;6813;60.352;15.746;2024-03-06T05:39:33;1.50;99.90
13482;DHT22;6813;60.352;15.746;2024-03-06T05:42:03;1.60;99.90
13482;DHT22;6813;60.352;15.746;2024-03-06T05:44:32;1.60;99.90
13482;DHT22;6813;60.352;15.746;2024-03-06T05:46:59;1.60;99.90
13482;DHT22;6813;60.352;15.746;2024-03-06T05:49:25;1.60;99.90
13482;DHT22;6813;60.352;15.746;2024-03-06T05:51:51;1.70;99.90
13482;DHT22;6813;60.352;15.746;2024-03-06T05:54:16;1.60;99.90
13482;DHT22;6813;60.352;15.746;2024-03-06T05:56:42;1.60;99.90
13482;DHT22;6813;60.352;15.746;2024-03-06T05:59:08;1.60;99.90
13482;DHT22;6813;60.352;15.746;2024-03-06T06:01:34;1.60;99.90
13482;DHT22;6813;60.352;15.746;2024-03-06T06:04:01;1.60;99.90
13482;DHT22;6813;60.352;15.746;2024-03-06T06:06:27;1.60;99.90
13482;DHT22;6813;60.352;15.746;2024-03-06T06:08:53;1.50;99.90
13482;DHT22;6813;60.352;15.746;2024-03-06T06:11:18;1.50;99.90
13482;DHT22;6813;60.352;15.746;2024-03-06T06:13:44;1.50;99.90
13482;DHT22;6813;60.352;15.746;2024-03-06T06:16:10;1.60;99.90
13482;DHT22;6813;60.352;15.746;2024-03-06T06:18:36;1.50;99.90
13482;DHT22;6813;60.352;15.746;2024-03-06T06:21:02;1.60;99.90
13482;DHT22;6813;60.352;15.746;2024-03-06T06:23:30;1.60;99.90
13482;DHT22;6813;60.352;15.746;2024-03-06T06:25:55;1.60;99.90
13482;DHT22;6813;60.352;15.746;2024-03-06T06:28:21;1.60;99.90
13482;DHT22;6813;60.352;15.746;2024-03-06T06:30:48;1.60;99.90
13482;DHT22;6813;60.352;15.746;2024-03-06T06:33:14;1.70;99.90
13482;DHT22;6813;60.352;15.746;2024-03-06T06:35:40;1.60;99.90
13482;DHT22;6813;60.352;15.746;2024-03-06T06:38:05;1.70;99.90
13482;DHT22;6813;60.352;15.746;2024-03-06T06:40:31;1.60;99.90
13482;DHT22;6813;60.352;15.746;2024-03-06T06:42:57;1.50;99.90
13482;DHT22;6813;60.352;15.746;2024-03-06T06:45:22;1.50;99.90
13482;DHT22;6813;60.352;15.746;2024-03-06T06:47:49;1.40;99.90
13482;DHT22;6813;60.352;15.746;2024-03-06T06:50:16;1.40;99.90
13482;DHT22;6813;60.352;15.746;2024-03-06T06:52:42;1.50;99.90
13482;DHT22;6813;60.352;15.746;2024-03-06T06:55:08;1.60;99.90
13482;DHT22;6813;60.352;15.746;2024-03-06T06:57:37;1.60;99.90
13482;DHT22;6813;60.352;15.746;2024-03-06T07:00:04;1.70;99.90
13482;DHT22;6813;60.352;15.746;2024-03-06T07:02:39;1.40;99.90
13482;DHT22;6813;60.352;15.746;2024-03-06T07:05:06;1.50;99.90
13482;DHT22;6813;60.352;15.746;2024-03-06T07:07:33;1.50;99.90
13482;DHT22;6813;60.352;15.746;2024-03-06T07:09:59;1.60;99.90
13482;DHT22;6813;60.352;15.746;2024-03-06T07:12:25;1.60;99.90
13482;DHT22;6813;60.352;15.746;2024-03-06T07:14:50;1.60;99.90
13482;DHT22;6813;60.352;15.746;2024-03-06T07:17:16;1.50;99.90
13482;DHT22;6813;60.352;15.746;2024-03-06T07:19:42;1.50;99.90
13482;DHT22;6813;60.352;15.746;2024-03-06T07:22:08;1.50;99.90
13482;DHT22;6813;60.352;15.746;2024-03-06T07:24:34;1.50;99.90
13482;DHT22;6813;60.352;15.746;2024-03-06T07:26:59;1.60;99.90
13482;DHT22;6813;60.352;15.746;2024-03-06T07:29:27;1.60;99.90
13482;DHT22;6813;60.352;15.746;2024-03-06T07:31:52;1.50;99.90
13482;DHT22;6813;60.352;15.746;2024-03-06T07:34:20;1.50;99.90
13482;DHT22;6813;60.352;15.746;2024-03-06T07:36:47;1.50;99.90
13482;DHT22;6813;60.352;15.746;2024-03-06T07:39:16;1.60;99.90
13482;DHT22;6813;60.352;15.746;2024-03-06T07:41:42;1.60;99.90
13482;DHT22;6813;60.352;15.746;2024-03-06T07:44:08;1.50;99.90
13482;DHT22;6813;60.352;15.746;2024-03-06T07:46:34;1.40;99.90
13482;DHT22;6813;60.352;15.746;2024-03-06T07:49:01;1.40;99.90
13482;DHT22;6813;60.352;15.746;2024-03-06T07:51:28;1.30;99.90
13482;DHT22;6813;60.352;15.746;2024-03-06T07:53:55;1.40;99.90
13482;DHT22;6813;60.352;15.746;2024-03-06T07:56:21;1.50;99.90
13482;DHT22;6813;60.352;15.746;2024-03-06T07:58:47;1.50;99.90
13482;DHT22;6813;60.352;15.746;2024-03-06T08:01:13;1.70;99.90
13482;DHT22;6813;60.352;15.746;2024-03-06T08:03:39;1.70;99.90
13482;DHT22;6813;60.352;15.746;2024-03-06T08:06:09;1.80;99.90
13482;DHT22;6813;60.352;15.746;2024-03-06T08:08:35;1.90;99.90
13482;DHT22;6813;60.352;15.746;2024-03-06T08:11:02;1.90;99.90
13482;DHT22;6813;60.352;15.746;2024-03-06T08:13:28;1.90;99.90
13482;DHT22;6813;60.352;15.746;2024-03-06T08:15:54;1.90;99.90
13482;DHT22;6813;60.352;15.746;2024-03-06T08:18:20;1.80;99.90
13482;DHT22;6813;60.352;15.746;2024-03-06T08:20:46;1.70;99.90
13482;DHT22;6813;60.352;15.746;2024-03-06T08:23:11;1.70;99.90
13482;DHT22;6813;60.352;15.746;2024-03-06T08:25:37;1.70;99.90
13482;DHT22;6813;60.352;15.746;2024-03-06T08:28:03;1.80;99.90
13482;DHT22;6813;60.352;15.746;2024-03-06T08:30:29;1.80;99.90
13482;DHT22;6813;60.352;15.746;2024-03-06T08:32:56;1.80;99.90
13482;DHT22;6813;60.352;15.746;2024-03-06T08:35:21;1.90;99.90
13482;DHT22;6813;60.352;15.746;2024-03-06T08:37:49;2.00;99.90
13482;DHT22;6813;60.352;15.746;2024-03-06T08:40:16;2.00;99.90
13482;DHT22;6813;60.352;15.746;2024-03-06T08:42:47;2.10;99.90
13482;DHT22;6813;60.352;15.746;2024-03-06T08:45:13;2.10;99.90
13482;DHT22;6813;60.352;15.746;2024-03-06T08:47:40;2.10;99.90
13482;DHT22;6813;60.352;15.746;2024-03-06T08:50:06;2.20;99.90
13482;DHT22;6813;60.352;15.746;2024-03-06T08:52:36;2.20;99.90
13482;DHT22;6813;60.352;15.746;2024-03-06T08:55:02;2.30;99.90
13482;DHT22;6813;60.352;15.746;2024-03-06T08:57:35;2.30;99.90
13482;DHT22;6813;60.352;15.746;2024-03-06T09:00:01;2.30;99.90
13482;DHT22;6813;60.352;15.746;2024-03-06T09:02:27;2.30;99.90
13482;DHT22;6813;60.352;15.746;2024-03-06T09:04:53;2.30;99.90
13482;DHT22;6813;60.352;15.746;2024-03-06T09:07:20;2.30;99.90
13482;DHT22;6813;60.352;15.746;2024-03-06T09:09:49;2.20;99.90
13482;DHT22;6813;60.352;15.746;2024-03-06T09:12:16;2.30;99.90
13482;DHT22;6813;60.352;15.746;2024-03-06T09:14:41;2.30;99.90
13482;DHT22;6813;60.352;15.746;2024-03-06T09:17:07;2.30;99.90
13482;DHT22;6813;60.352;15.746;2024-03-06T09:19:36;2.40;99.90
13482;DHT22;6813;60.352;15.746;2024-03-06T09:22:02;2.40;99.90
13482;DHT22;6813;60.352;15.746;2024-03-06T09:24:28;2.50;99.90
13482;DHT22;6813;60.352;15.746;2024-03-06T09:26:54;2.50;99.90
13482;DHT22;6813;60.352;15.746;2024-03-06T09:29:21;2.50;99.90
13482;DHT22;6813;60.352;15.746;2024-03-06T09:31:47;2.50;99.90
13482;DHT22;6813;60.352;15.746;2024-03-06T09:34:14;2.60;99.90
13482;DHT22;6813;60.352;15.746;2024-03-06T09:36:41;2.60;99.90
13482;DHT22;6813;60.352;15.746;2024-03-06T09:39:17;2.60;99.90
13482;DHT22;6813;60.352;15.746;2024-03-06T09:41:53;2.70;99.90
13482;DHT22;6813;60.352;15.746;2024-03-06T09:44:20;2.70;99.90
13482;DHT22;6813;60.352;15.746;2024-03-06T09:46:48;2.70;99.90
13482;DHT22;6813;60.352;15.746;2024-03-06T09:49:17;2.70;99.90
13482;DHT22;6813;60.352;15.746;2024-03-06T09:51:47;2.70;99.90
13482;DHT22;6813;60.352;15.746;2024-03-06T09:54:15;2.80;99.90
13482;DHT22;6813;60.352;15.746;2024-03-06T09:56:45;2.80;99.90
13482;DHT22;6813;60.352;15.746;2024-03-06T09:59:11;2.90;99.90
13482;DHT22;6813;60.352;15.746;2024-03-06T10:01:53;2.80;99.90
13482;DHT22;6813;60.352;15.746;2024-03-06T10:04:20;2.90;99.90
13482;DHT22;6813;60.352;15.746;2024-03-06T10:06:47;3.00;99.90
13482;DHT22;6813;60.352;15.746;2024-03-06T10:09:18;2.80;99.90
13482;DHT22;6813;60.352;15.746;2024-03-06T10:11:44;2.60;99.90
13482;DHT22;6813;60.352;15.746;2024-03-06T10:14:10;2.60;99.90
13482;DHT22;6813;60.352;15.746;2024-03-06T10:16:36;2.70;99.90
13482;DHT22;6813;60.352;15.746;2024-03-06T10:19:15;2.90;99.90
13482;DHT22;6813;60.352;15.746;2024-03-06T10:21:47;3.10;99.90
13482;DHT22;6813;60.352;15.746;2024-03-06T10:24:20;3.10;99.90
13482;DHT22;6813;60.352;15.746;2024-03-06T10:26:46;3.00;99.90
13482;DHT22;6813;60.352;15.746;2024-03-06T10:29:18;3.10;99.90
13482;DHT22;6813;60.352;15.746;2024-03-06T10:31:55;3.00;99.90
13482;DHT22;6813;60.352;15.746;2024-03-06T10:34:21;3.10;99.90
13482;DHT22;6813;60.352;15.746;2024-03-06T10:36:58;3.10;99.90
13482;DHT22;6813;60.352;15.746;2024-03-06T10:39:24;3.20;99.90
13482;DHT22;6813;60.352;15.746;2024-03-06T10:41:55;3.20;99.90
13482;DHT22;6813;60.352;15.746;2024-03-06T10:44:25;3.30;99.90
13482;DHT22;6813;60.352;15.746;2024-03-06T10:46:59;3.30;99.90
13482;DHT22;6813;60.352;15.746;2024-03-06T10:49:27;3.20;99.90
13482;DHT22;6813;60.352;15.746;2024-03-06T10:52:05;3.10;99.90
13482;DHT22;6813;60.352;15.746;2024-03-06T10:54:35;3.20;99.90
13482;DHT22;6813;60.352;15.746;2024-03-06T10:57:02;3.30;99.90
13482;DHT22;6813;60.352;15.746;2024-03-06T10:59:29;3.30;99.90
13482;DHT22;6813;60.352;15.746;2024-03-06T11:01:56;3.30;99.90
13482;DHT22;6813;60.352;15.746;2024-03-06T11:04:26;3.30;99.90
13482;DHT22;6813;60.352;15.746;2024-03-06T11:06:56;3.30;99.90
13482;DHT22;6813;60.352;15.746;2024-03-06T11:09:22;3.20;99.90
13482;DHT22;6813;60.352;15.746;2024-03-06T11:11:51;3.10;99.90
13482;DHT22;6813;60.352;15.746;2024-03-06T11:14:18;3.20;99.90
13482;DHT22;6813;60.352;15.746;2024-03-06T11:16:57;3.30;99.90
13482;DHT22;6813;60.352;15.746;2024-03-06T11:19:23;3.30;99.90
13482;DHT22;6813;60.352;15.746;2024-03-06T11:21:49;3.30;99.90
13482;DHT22;6813;60.352;15.746;2024-03-06T11:24:22;3.20;99.90
13482;DHT22;6813;60.352;15.746;2024-03-06T11:26:56;3.20;99.90
13482;DHT22;6813;60.352;15.746;2024-03-06T11:29:28;3.10;99.90
13482;DHT22;6813;60.352;15.746;2024-03-06T11:32:03;3.10;99.90
13482;DHT22;6813;60.352;15.746;2024-03-06T11:34:29;3.20;99.90
13482;DHT22;6813;60.352;15.746;2024-03-06T11:36:58;3.10;99.90
13482;DHT22;6813;60.352;15.746;2024-03-06T11:39:27;3.20;99.90
13482;DHT22;6813;60.352;15.746;2024-03-06T11:41:53;3.30;99.90
13482;DHT22;6813;60.352;15.746;2024-03-06T11:44:20;3.40;99.90
13482;DHT22;6813;60.352;15.746;2024-03-06T11:46:50;3.40;99.90
13482;DHT22;6813;60.352;15.746;2024-03-06T11:49:17;3.20;99.90
13482;DHT22;6813;60.352;15.746;2024-03-06T11:51:46;2.70;99.90
13482;DHT22;6813;60.352;15.746;2024-03-06T11:54:12;2.70;99.90
13482;DHT22;6813;60.352;15.746;2024-03-06T11:56:45;2.90;99.90
13482;DHT22;6813;60.352;15.746;2024-03-06T11:59:12;2.90;99.90
13482;DHT22;6813;60.352;15.746;2024-03-06T12:01:38;3.00;99.90
13482;DHT22;6813;60.352;15.746;2024-03-06T12:04:04;3.10;99.90
13482;DHT22;6813;60.352;15.746;2024-03-06T12:06:31;3.20;99.90
13482;DHT22;6813;60.352;15.746;2024-03-06T12:08:58;3.10;99.90
13482;DHT22;6813;60.352;15.746;2024-03-06T12:11:24;3.20;99.90
13482;DHT22;6813;60.352;15.746;2024-03-06T12:13:55;3.30;99.90
13482;DHT22;6813;60.352;15.746;2024-03-06T12:16:21;3.40;99.90
13482;DHT22;6813;60.352;15.746;2024-03-06T12:18:53;3.50;99.90
13482;DHT22;6813;60.352;15.746;2024-03-06T12:21:19;3.40;99.90
13482;DHT22;6813;60.352;15.746;2024-03-06T12:23:45;3.10;99.90
13482;DHT22;6813;60.352;15.746;2024-03-06T12:26:11;3.10;99.90
13482;DHT22;6813;60.352;15.746;2024-03-06T12:28:37;3.10;99.90
13482;DHT22;6813;60.352;15.746;2024-03-06T12:31:04;3.30;99.90
13482;DHT22;6813;60.352;15.746;2024-03-06T12:33:30;3.60;99.90
13482;DHT22;6813;60.352;15.746;2024-03-06T12:36:07;3.60;99.90
13482;DHT22;6813;60.352;15.746;2024-03-06T12:38:36;3.70;99.90
13482;DHT22;6813;60.352;15.746;2024-03-06T12:41:02;3.90;99.90
13482;DHT22;6813;60.352;15.746;2024-03-06T12:43:29;4.00;99.90
13482;DHT22;6813;60.352;15.746;2024-03-06T12:45:55;4.00;99.90
13482;DHT22;6813;60.352;15.746;2024-03-06T12:48:23;4.40;99.90
13482;DHT22;6813;60.352;15.746;2024-03-06T12:50:50;4.60;99.90
13482;DHT22;6813;60.352;15.746;2024-03-06T12:53:20;4.50;99.90
13482;DHT22;6813;60.352;15.746;2024-03-06T12:55:46;4.40;99.90
13482;DHT22;6813;60.352;15.746;2024-03-06T12:58:13;4.40;99.90
13482;DHT22;6813;60.352;15.746;2024-03-06T13:00:39;4.40;99.90
13482;DHT22;6813;60.352;15.746;2024-03-06T13:03:05;4.50;99.90
13482;DHT22;6813;60.352;15.746;2024-03-06T13:05:31;4.30;99.90
13482;DHT22;6813;60.352;15.746;2024-03-06T13:07:57;3.90;99.90
13482;DHT22;6813;60.352;15.746;2024-03-06T13:10:25;3.80;99.90
13482;DHT22;6813;60.352;15.746;2024-03-06T13:12:50;4.00;99.90
13482;DHT22;6813;60.352;15.746;2024-03-06T13:15:16;4.00;99.90
13482;DHT22;6813;60.352;15.746;2024-03-06T13:17:42;4.10;99.90
13482;DHT22;6813;60.352;15.746;2024-03-06T13:20:08;4.30;99.90
13482;DHT22;6813;60.352;15.746;2024-03-06T13:22:37;4.40;99.90
13482;DHT22;6813;60.352;15.746;2024-03-06T13:25:04;4.50;99.90
13482;DHT22;6813;60.352;15.746;2024-03-06T13:27:30;4.50;99.90
13482;DHT22;6813;60.352;15.746;2024-03-06T13:29:56;4.40;99.90
13482;DHT22;6813;60.352;15.746;2024-03-06T13:32:22;4.20;99.90
13482;DHT22;6813;60.352;15.746;2024-03-06T13:34:48;4.10;99.90
13482;DHT22;6813;60.352;15.746;2024-03-06T13:37:14;4.10;99.90
13482;DHT22;6813;60.352;15.746;2024-03-06T13:39:40;4.30;99.90
13482;DHT22;6813;60.352;15.746;2024-03-06T13:42:07;4.40;99.90
13482;DHT22;6813;60.352;15.746;2024-03-06T13:44:36;4.50;99.90
13482;DHT22;6813;60.352;15.746;2024-03-06T13:47:02;4.50;99.90
13482;DHT22;6813;60.352;15.746;2024-03-06T13:49:40;4.30;99.90
13482;DHT22;6813;60.352;15.746;2024-03-06T13:52:08;4.00;99.90
13482;DHT22;6813;60.352;15.746;2024-03-06T13:54:39;4.00;99.90
13482;DHT22;6813;60.352;15.746;2024-03-06T13:57:06;3.90;99.90
13482;DHT22;6813;60.352;15.746;2024-03-06T13:59:33;3.90;99.90
13482;DHT22;6813;60.352;15.746;2024-03-06T14:02:00;4.00;99.90
13482;DHT22;6813;60.352;15.746;2024-03-06T14:04:26;4.20;99.90
13482;DHT22;6813;60.352;15.746;2024-03-06T14:06:52;4.20;99.90
13482;DHT22;6813;60.352;15.746;2024-03-06T14:09:18;4.30;99.90
13482;DHT22;6813;60.352;15.746;2024-03-06T14:11:44;4.40;99.90
13482;DHT22;6813;60.352;15.746;2024-03-06T14:14:10;4.40;99.90
13482;DHT22;6813;60.352;15.746;2024-03-06T14:16:37;4.20;99.90
13482;DHT22;6813;60.352;15.746;2024-03-06T14:19:02;4.00;99.90
13482;DHT22;6813;60.352;15.746;2024-03-06T14:21:30;4.00;99.90
13482;DHT22;6813;60.352;15.746;2024-03-06T14:23:59;4.20;99.90
13482;DHT22;6813;60.352;15.746;2024-03-06T14:26:25;4.20;99.90
13482;DHT22;6813;60.352;15.746;2024-03-06T14:28:53;4.20;99.90
13482;DHT22;6813;60.352;15.746;2024-03-06T14:31:18;4.30;99.90
13482;DHT22;6813;60.352;15.746;2024-03-06T14:33:44;4.30;99.90
13482;DHT22;6813;60.352;15.746;2024-03-06T14:36:12;4.30;99.90
13482;DHT22;6813;60.352;15.746;2024-03-06T14:38:37;4.20;99.90
13482;DHT22;6813;60.352;15.746;2024-03-06T14:41:03;4.20;99.90
13482;DHT22;6813;60.352;15.746;2024-03-06T14:43:31;4.20;99.90
13482;DHT22;6813;60.352;15.746;2024-03-06T14:46:00;4.20;99.90
13482;DHT22;6813;60.352;15.746;2024-03-06T14:48:25;4.10;99.90
13482;DHT22;6813;60.352;15.746;2024-03-06T14:50:51;3.90;99.90
13482;DHT22;6813;60.352;15.746;2024-03-06T14:53:17;4.00;99.90
13482;DHT22;6813;60.352;15.746;2024-03-06T14:55:43;4.10;99.90
13482;DHT22;6813;60.352;15.746;2024-03-06T14:58:09;4.00;99.90
13482;DHT22;6813;60.352;15.746;2024-03-06T15:00:35;3.90;99.90
13482;DHT22;6813;60.352;15.746;2024-03-06T15:03:00;4.00;99.90
13482;DHT22;6813;60.352;15.746;2024-03-06T15:05:27;4.10;99.90
13482;DHT22;6813;60.352;15.746;2024-03-06T15:07:53;4.10;99.90
13482;DHT22;6813;60.352;15.746;2024-03-06T15:10:19;4.10;99.90
13482;DHT22;6813;60.352;15.746;2024-03-06T15:12:45;3.90;99.90
13482;DHT22;6813;60.352;15.746;2024-03-06T15:15:11;3.90;99.90
13482;DHT22;6813;60.352;15.746;2024-03-06T15:17:37;4.00;99.90
13482;DHT22;6813;60.352;15.746;2024-03-06T15:20:06;4.10;99.90
13482;DHT22;6813;60.352;15.746;2024-03-06T15:22:35;4.10;99.90
13482;DHT22;6813;60.352;15.746;2024-03-06T15:25:08;4.70;99.90
13482;DHT22;6813;60.352;15.746;2024-03-06T15:27:35;5.20;99.90
13482;DHT22;6813;60.352;15.746;2024-03-06T15:30:02;5.40;99.90
13482;DHT22;6813;60.352;15.746;2024-03-06T15:32:28;5.30;99.90
13482;DHT22;6813;60.352;15.746;2024-03-06T15:34:54;5.30;99.90
13482;DHT22;6813;60.352;15.746;2024-03-06T15:37:22;5.10;99.90
13482;DHT22;6813;60.352;15.746;2024-03-06T15:39:52;4.90;99.90
13482;DHT22;6813;60.352;15.746;2024-03-06T15:42:19;4.80;99.90